Time;durP1;ratioP1;P1;durP2;ratioP2;P2;SDS_P1;SDS_P2;PMS_P1;PMS_P2;Temp;Humidity;BMP_temperature;BMP_pressure;BME280_temperature;BME280_humidity;BME280_pressure;Samples;Min_cycle;Max_cycle;Signal;HPM_P1;HPM_P2
2021/01/07 00:01:54;;;;;;;;;;;;;;;20.63;42.12;100819.13;5076433;28;984;-49
2021/01/07 00:04:19;;;;;;;;;;;;;;;20.38;42.87;100826.66;5076251;28;788;-48
2021/01/07 00:06:45;;;;;;;;;;;;;;;20.09;43.21;100830.38;5071110;28;988;-49
2021/01/07 00:09:10;;;;;;;;;;;;;;;19.56;43.94;100830.41;5056576;28;726;-51
2021/01/07 00:11:40;;;;;;;;;;;;;;;20.34;42.99;100823.69;5056068;28;807;-48
2021/01/07 00:14:06;;;;;;;;;;;;;;;21.00;41.30;100812.75;5055260;28;1906;-50
2021/01/07 00:16:31;;;;;;;;;;;;;;;20.51;42.38;100817.63;5056233;28;760;-47
2021/01/07 00:18:57;;;;;;;;;;;;;;;20.34;42.66;100811.81;5056089;28;763;-49
2021/01/07 00:21:22;;;;;;;;;;;;;;;19.71;43.68;100804.59;5055747;28;910;-48
2021/01/07 00:23:48;;;;;;;;;;;;;;;19.80;44.13;100800.94;5056186;28;764;-46
2021/01/07 00:26:13;;;;;;;;;;;;;;;20.74;42.12;100789.41;5056058;28;831;-47
2021/01/07 00:28:38;;;;;;;;;;;;;;;20.66;42.09;100779.84;5055771;28;840;-47
2021/01/07 00:31:04;;;;;;;;;;;;;;;20.36;42.97;100773.69;5056218;28;839;-47
2021/01/07 00:33:29;;;;;;;;;;;;;;;20.08;43.27;100767.19;5056126;28;1961;-50
2021/01/07 00:35:55;;;;;;;;;;;;;;;19.67;43.75;100771.28;5055579;28;772;-47
2021/01/07 00:38:20;;;;;;;;;;;;;;;20.51;42.51;100790.00;5056066;28;954;-46
2021/01/07 00:40:46;;;;;;;;;;;;;;;20.93;41.40;100778.31;5056025;28;807;-49
2021/01/07 00:43:11;;;;;;;;;;;;;;;20.52;42.62;100775.09;5055559;28;814;-46
2021/01/07 00:45:36;;;;;;;;;;;;;;;20.30;42.79;100772.09;5056331;28;714;-51
2021/01/07 00:48:02;;;;;;;;;;;;;;;19.67;43.57;100779.56;5055980;28;776;-50
2021/01/07 00:50:29;;;;;;;;;;;;;;;20.17;43.34;100777.28;5054486;28;1272;-49
2021/01/07 00:52:54;;;;;;;;;;;;;;;21.00;41.19;100767.69;5055687;28;1910;-48
2021/01/07 00:55:22;;;;;;;;;;;;;;;20.41;42.58;100757.03;5074786;28;1629;-49
2021/01/07 00:57:53;;;;;;;;;;;;;;;20.28;42.80;100760.53;5074571;28;1423;-51
2021/01/07 01:00:19;;;;;;;;;;;;;;;19.89;43.49;100764.41;5075733;28;1009;-49
2021/01/07 01:02:45;;;;;;;;;;;;;;;20.06;43.68;100759.19;5075836;28;783;-45
2021/01/07 01:05:10;;;;;;;;;;;;;;;20.97;41.74;100751.69;5075544;28;846;-48
2021/01/07 01:07:36;;;;;;;;;;;;;;;21.52;40.28;100754.56;5063825;28;966;-49
2021/01/07 01:10:01;;;;;;;;;;;;;;;21.17;41.04;100742.22;5055654;28;828;-48
2021/01/07 01:12:26;;;;;;;;;;;;;;;20.62;42.39;100738.19;5055951;28;856;-47
2021/01/07 01:14:52;;;;;;;;;;;;;;;20.52;42.41;100741.94;5055683;28;1913;-46
2021/01/07 01:17:17;;;;;;;;;;;;;;;19.94;42.75;100747.78;5055516;28;847;-51
2021/01/07 01:19:43;;;;;;;;;;;;;;;19.48;45.05;100747.22;5055395;28;524;-51
2021/01/07 01:22:08;;;;;;;;;;;;;;;20.47;42.73;100761.34;5055388;28;1006;-48
2021/01/07 01:24:33;;;;;;;;;;;;;;;20.85;41.89;100744.72;5055388;28;874;-47
2021/01/07 01:26:59;;;;;;;;;;;;;;;20.56;42.63;100749.63;5058128;28;779;-48
2021/01/07 01:29:25;;;;;;;;;;;;;;;20.28;42.90;100738.44;5059626;28;759;-48
2021/01/07 01:31:50;;;;;;;;;;;;;;;19.68;43.39;100739.81;5059295;28;843;-51
2021/01/07 01:34:16;;;;;;;;;;;;;;;20.36;43.33;100743.31;5058916;28;1979;-51
2021/01/07 01:36:41;;;;;;;;;;;;;;;20.93;41.50;100745.13;5058844;28;934;-48
2021/01/07 01:39:07;;;;;;;;;;;;;;;20.50;42.41;100744.16;5058942;28;810;-47
2021/01/07 01:41:38;;;;;;;;;;;;;;;20.34;42.81;100742.75;5058839;28;839;-48
2021/01/07 01:44:05;;;;;;;;;;;;;;;19.69;43.53;100744.22;5059036;28;843;-47
2021/01/07 01:46:30;;;;;;;;;;;;;;;19.86;44.04;100743.75;5057907;28;748;-50
2021/01/07 01:48:56;;;;;;;;;;;;;;;20.76;42.27;100746.56;5059136;28;775;-50
2021/01/07 01:51:21;;;;;;;;;;;;;;;20.83;41.71;100730.41;5058666;28;950;-47
2021/01/07 01:53:47;;;;;;;;;;;;;;;20.51;42.32;100731.19;5057374;28;1914;-47
2021/01/07 01:56:12;;;;;;;;;;;;;;;20.39;42.60;100731.66;5071256;28;1151;-51
2021/01/07 01:58:38;;;;;;;;;;;;;;;19.67;43.68;100722.44;5077504;28;1507;-46
2021/01/07 02:01:03;;;;;;;;;;;;;;;20.15;43.33;100721.50;5077302;28;1024;-48
2021/01/07 02:03:28;;;;;;;;;;;;;;;20.98;41.54;100720.19;5078749;28;748;-45
2021/01/07 02:05:54;;;;;;;;;;;;;;;20.66;42.28;100705.22;5078835;28;843;-48
2021/01/07 02:08:20;;;;;;;;;;;;;;;20.41;42.84;100710.09;5060441;28;958;-44
2021/01/07 02:10:46;;;;;;;;;;;;;;;20.19;43.07;100710.72;5057082;28;728;-48
2021/01/07 02:13:11;;;;;;;;;;;;;;;19.78;44.00;100706.56;5057036;28;1991;-46
2021/01/07 02:15:40;;;;;;;;;;;;;;;19.67;44.30;100705.06;5057215;28;870;-50
2021/01/07 02:18:06;;;;;;;;;;;;;;;19.71;44.29;100710.81;5058180;28;752;-47
2021/01/07 02:20:31;;;;;;;;;;;;;;;19.70;44.22;100704.47;5058188;28;681;-45
2021/01/07 02:22:57;;;;;;;;;;;;;;;19.69;44.41;100708.34;5071647;28;982;-47
2021/01/07 02:25:22;;;;;;;;;;;;;;;19.76;44.11;100708.78;5077962;28;835;-47
2021/01/07 02:27:48;;;;;;;;;;;;;;;19.90;43.85;100703.41;5078371;28;779;-47
2021/01/07 02:30:14;;;;;;;;;;;;;;;19.97;43.81;100701.06;5078188;28;803;-49
2021/01/07 02:32:39;;;;;;;;;;;;;;;19.91;43.89;100704.19;5077859;28;839;-47
2021/01/07 02:35:05;;;;;;;;;;;;;;;19.67;44.38;100694.84;5077746;28;1906;-47
2021/01/07 02:37:31;;;;;;;;;;;;;;;19.54;44.49;100683.72;5065545;28;949;-48
2021/01/07 02:39:56;;;;;;;;;;;;;;;19.98;43.73;100674.31;5058007;28;804;-49
2021/01/07 02:42:24;;;;;;;;;;;;;;;20.75;41.96;100662.00;5057746;28;791;-46
2021/01/07 02:44:49;;;;;;;;;;;;;;;20.50;42.42;100660.50;5057952;28;776;-49
2021/01/07 02:47:15;;;;;;;;;;;;;;;20.27;42.98;100657.56;5057541;28;751;-47
2021/01/07 02:49:40;;;;;;;;;;;;;;;20.00;43.16;100658.25;5057833;28;795;-47
2021/01/07 02:52:06;;;;;;;;;;;;;;;19.84;44.10;100663.22;5057442;28;962;-49
2021/01/07 02:54:31;;;;;;;;;;;;;;;20.80;41.77;100658.31;5057657;28;1914;-49
2021/01/07 02:56:57;;;;;;;;;;;;;;;20.75;41.71;100661.16;5076235;28;1257;-47
2021/01/07 02:59:22;;;;;;;;;;;;;;;20.36;42.58;100652.16;5077933;28;827;-48
2021/01/07 03:01:47;;;;;;;;;;;;;;;20.05;43.22;100658.19;5077098;28;1139;-48
2021/01/07 03:04:13;;;;;;;;;;;;;;;19.67;43.35;100653.47;5077587;28;775;-48
2021/01/07 03:06:38;;;;;;;;;;;;;;;20.34;43.04;100643.34;5073105;28;993;-49
2021/01/07 03:09:04;;;;;;;;;;;;;;;20.98;41.07;100637.25;5057147;28;823;-47
2021/01/07 03:11:29;;;;;;;;;;;;;;;20.62;42.30;100635.13;5057145;28;812;-48
2021/01/07 03:13:55;;;;;;;;;;;;;;;20.43;42.66;100621.41;5057277;28;1918;-46
2021/01/07 03:16:20;;;;;;;;;;;;;;;19.74;43.44;100622.75;5057129;28;534;-46
2021/01/07 03:18:45;;;;;;;;;;;;;;;19.91;44.02;100621.41;5056959;28;744;-51
2021/01/07 03:21:11;;;;;;;;;;;;;;;20.82;41.71;100615.44;5057120;28;934;-47
2021/01/07 03:23:36;;;;;;;;;;;;;;;20.56;42.39;100614.25;5057096;28;790;-46
2021/01/07 03:26:02;;;;;;;;;;;;;;;20.35;42.64;100612.66;5056861;28;748;-50
2021/01/07 03:28:27;;;;;;;;;;;;;;;19.95;43.48;100608.66;5057095;28;807;-47
2021/01/07 03:30:53;;;;;;;;;;;;;;;19.72;43.77;100615.91;5056775;28;743;-50
2021/01/07 03:33:18;;;;;;;;;;;;;;;20.42;42.78;100615.03;5056697;28;1922;-48
2021/01/07 03:35:44;;;;;;;;;;;;;;;20.82;41.58;100609.91;5056884;28;791;-50
2021/01/07 03:38:09;;;;;;;;;;;;;;;20.36;42.70;100605.22;5056438;28;986;-46
2021/01/07 03:40:35;;;;;;;;;;;;;;;20.23;42.94;100600.47;5056617;28;791;-45
2021/01/07 03:43:00;;;;;;;;;;;;;;;19.57;43.79;100603.97;5057183;28;751;-45
2021/01/07 03:45:25;;;;;;;;;;;;;;;20.10;43.51;100586.31;5056510;28;727;-48
2021/01/07 03:47:51;;;;;;;;;;;;;;;20.93;41.63;100591.19;5056697;28;775;-49
2021/01/07 03:50:16;;;;;;;;;;;;;;;20.49;42.62;100582.31;5056549;28;748;-47
2021/01/07 03:52:42;;;;;;;;;;;;;;;20.34;42.84;100585.38;5056406;28;1009;-49
2021/01/07 03:55:07;;;;;;;;;;;;;;;20.02;43.05;100595.31;5060085;28;1961;-47
2021/01/07 03:57:33;;;;;;;;;;;;;;;19.74;43.56;100589.66;5076799;28;735;-48
2021/01/07 03:59:58;;;;;;;;;;;;;;;20.61;42.33;100586.56;5075300;28;1344;-48
2021/01/07 04:02:24;;;;;;;;;;;;;;;20.89;41.44;100581.03;5056202;28;755;-52
2021/01/07 04:04:49;;;;;;;;;;;;;;;20.56;42.35;100581.13;5056372;28;831;-48
2021/01/07 04:07:15;;;;;;;;;;;;;;;20.28;42.93;100583.81;5055987;28;1090;-51
2021/01/07 04:09:40;;;;;;;;;;;;;;;19.75;43.29;100569.19;5056182;28;867;-46
2021/01/07 04:12:06;;;;;;;;;;;;;;;20.24;43.18;100571.75;5056273;28;736;-50
2021/01/07 04:14:31;;;;;;;;;;;;;;;21.02;41.20;100571.94;5056175;28;1910;-49
2021/01/07 04:16:57;;;;;;;;;;;;;;;20.50;42.31;100575.69;5055846;28;795;-53
2021/01/07 04:19:22;;;;;;;;;;;;;;;20.43;42.50;100577.22;5056034;28;823;-46
2021/01/07 04:21:48;;;;;;;;;;;;;;;19.91;43.17;100575.34;5055973;28;950;-49
2021/01/07 04:24:13;;;;;;;;;;;;;;;20.05;43.64;100574.56;5055989;28;855;-53
2021/01/07 04:26:40;;;;;;;;;;;;;;;20.87;41.66;100569.50;5055858;28;864;-49
2021/01/07 04:29:05;;;;;;;;;;;;;;;20.56;42.20;100570.88;5056461;28;799;-50
2021/01/07 04:31:31;;;;;;;;;;;;;;;20.38;42.94;100558.78;5056174;28;840;-51
2021/01/07 04:33:56;;;;;;;;;;;;;;;20.11;43.06;100559.56;5056132;28;1914;-52
2021/01/07 04:36:21;;;;;;;;;;;;;;;19.94;43.85;100555.41;5055849;28;1005;-54
2021/01/07 04:38:47;;;;;;;;;;;;;;;20.65;42.38;100557.16;5055818;28;835;-53
2021/01/07 04:41:12;;;;;;;;;;;;;;;20.64;42.38;100550.03;5055927;28;800;-54
2021/01/07 04:43:38;;;;;;;;;;;;;;;20.35;43.02;100553.88;5056068;28;784;-53
2021/01/07 04:46:03;;;;;;;;;;;;;;;20.14;43.54;100543.19;5055818;28;791;-53
2021/01/07 04:48:29;;;;;;;;;;;;;;;19.60;44.17;100550.13;5054486;28;859;-54
2021/01/07 04:50:54;;;;;;;;;;;;;;;20.15;43.54;100544.84;5055944;28;811;-51
2021/01/07 04:53:20;;;;;;;;;;;;;;;20.94;41.75;100556.06;5054545;28;1922;-52
2021/01/07 04:55:45;;;;;;;;;;;;;;;20.39;42.87;100554.09;5063436;28;1179;-52
2021/01/07 04:58:10;;;;;;;;;;;;;;;20.20;43.26;100543.91;5074854;28;1415;-58
2021/01/07 05:00:36;;;;;;;;;;;;;;;19.78;44.12;100548.47;5076008;28;1040;-49
2021/01/07 05:03:01;;;;;;;;;;;;;;;19.85;44.22;100539.84;5079966;28;800;-50
2021/01/07 05:05:27;;;;;;;;;;;;;;;20.82;41.91;100549.13;5078618;28;843;-49
2021/01/07 05:07:52;;;;;;;;;;;;;;;20.70;42.19;100543.28;5063645;28;1303;-50
2021/01/07 05:10:18;;;;;;;;;;;;;;;20.38;42.84;100530.34;5059555;28;812;-50
2021/01/07 05:12:43;;;;;;;;;;;;;;;20.10;43.25;100539.41;5066908;28;743;-46
2021/01/07 05:15:09;;;;;;;;;;;;;;;19.73;44.11;100532.03;5079174;28;1975;-48
2021/01/07 05:17:34;;;;;;;;;;;;;;;20.60;42.46;100515.84;5079452;28;898;-52
2021/01/07 05:20:00;;;;;;;;;;;;;;;20.92;41.69;100511.34;5079492;28;759;-55
2021/01/07 05:22:41;;;;;;;;;;;;;;;20.50;42.64;100522.38;5068570;28;965;-49
2021/01/07 05:25:10;;;;;;;;;;;;;;;20.28;43.07;100517.56;5059326;28;767;-47
2021/01/07 05:27:36;;;;;;;;;;;;;;;19.74;43.58;100525.38;5059419;28;842;-50
2021/01/07 05:30:02;;;;;;;;;;;;;;;20.51;42.71;100530.38;5057808;28;910;-47
2021/01/07 05:32:34;;;;;;;;;;;;;;;20.93;41.57;100532.31;5059237;28;863;-48
2021/01/07 05:35:00;;;;;;;;;;;;;;;20.39;42.88;100532.81;5059116;28;1917;-46
2021/01/07 05:37:25;;;;;;;;;;;;;;;20.18;43.28;100527.66;5058513;28;942;-47
2021/01/07 05:39:51;;;;;;;;;;;;;;;19.79;44.06;100542.69;5059457;28;759;-48
2021/01/07 05:42:16;;;;;;;;;;;;;;;20.11;43.60;100532.75;5059127;28;795;-51
2021/01/07 05:44:43;;;;;;;;;;;;;;;21.02;41.78;100544.28;5071250;28;843;-48
2021/01/07 05:47:09;;;;;;;;;;;;;;;20.57;42.31;100544.91;5078820;28;871;-56
2021/01/07 05:49:35;;;;;;;;;;;;;;;20.44;42.85;100543.78;5078953;28;783;-47
2021/01/07 05:52:03;;;;;;;;;;;;;;;19.99;43.43;100537.94;5071230;28;946;-49
2021/01/07 05:54:28;;;;;;;;;;;;;;;20.13;43.71;100533.28;5057558;28;1982;-49
2021/01/07 05:56:53;;;;;;;;;;;;;;;20.99;41.71;100523.59;5076140;28;1111;-51
2021/01/07 05:59:19;;;;;;;;;;;;;;;20.51;42.67;100518.50;5077143;28;759;-52
2021/01/07 06:01:44;;;;;;;;;;;;;;;20.43;42.86;100528.31;5078582;28;1008;-52
2021/01/07 06:04:10;;;;;;;;;;;;;;;19.95;43.46;100537.75;5077592;28;728;-51
2021/01/07 06:06:35;;;;;;;;;;;;;;;19.75;44.54;100532.53;5074713;28;942;-51
2021/01/07 06:09:00;;;;;;;;;;;;;;;20.63;42.68;100526.28;5057658;28;768;-54
2021/01/07 06:11:26;;;;;;;;;;;;;;;20.73;41.94;100544.63;5057076;28;783;-49
2021/01/07 06:13:52;;;;;;;;;;;;;;;20.43;43.07;100546.84;5057587;28;1987;-48
2021/01/07 06:16:18;;;;;;;;;;;;;;;20.12;43.32;100541.88;5057012;28;795;-51
2021/01/07 06:18:44;;;;;;;;;;;;;;;19.57;43.83;100540.56;5057133;28;843;-51
2021/01/07 06:21:10;;;;;;;;;;;;;;;20.14;43.80;100543.19;5058257;28;771;-49
2021/01/07 06:23:44;;;;;;;;;;;;;;;20.95;41.95;100549.41;5058099;28;783;-55
2021/01/07 06:26:17;;;;;;;;;;;;;;;20.48;42.82;100542.03;5057943;28;783;-52
2021/01/07 06:28:42;;;;;;;;;;;;;;;20.35;42.93;100540.06;5057012;28;926;-48
2021/01/07 06:31:12;;;;;;;;;;;;;;;19.92;43.75;100540.28;5056709;28;1473;-48
2021/01/07 06:33:38;;;;;;;;;;;;;;;20.06;43.93;100530.09;5057812;28;1914;-47
2021/01/07 06:36:06;;;;;;;;;;;;;;;20.95;42.02;100527.31;5058050;28;736;-48
2021/01/07 06:38:31;;;;;;;;;;;;;;;20.51;42.72;100532.31;5057860;28;1005;-48
2021/01/07 06:40:57;;;;;;;;;;;;;;;20.40;42.93;100539.97;5056538;28;1318;-48
2021/01/07 06:43:22;;;;;;;;;;;;;;;19.92;43.89;100537.50;5058012;28;740;-46
2021/01/07 06:45:49;;;;;;;;;;;;;;;19.66;45.08;100543.44;5056403;28;904;-54
2021/01/07 06:48:18;;;;;;;;;;;;;;;20.60;42.59;100538.75;5057546;28;812;-54
2021/01/07 06:50:44;;;;;;;;;;;;;;;20.92;41.86;100539.00;5056850;28;1707;-52
2021/01/07 06:53:09;;;;;;;;;;;;;;;20.51;42.65;100535.09;5055892;28;1999;-50
2021/01/07 06:55:34;;;;;;;;;;;;;;;20.33;43.10;100545.91;5064982;28;1118;-49
2021/01/07 06:58:00;;;;;;;;;;;;;;;19.74;44.08;100555.72;5077632;28;791;-52
2021/01/07 07:00:26;;;;;;;;;;;;;;;20.07;43.93;100558.53;5077086;28;1130;-47
2021/01/07 07:03:01;;;;;;;;;;;;;;;20.88;42.13;100560.06;5077451;28;732;-53
2021/01/07 07:05:30;;;;;;;;;;;;;;;20.45;42.73;100564.72;5076294;28;763;-50
2021/01/07 07:08:02;;;;;;;;;;;;;;;20.34;43.11;100563.28;5062407;28;1009;-50
2021/01/07 07:10:27;;;;;;;;;;;;;;;19.71;44.14;100548.84;5057477;28;807;-51
2021/01/07 07:12:53;;;;;;;;;;;;;;;19.77;44.52;100544.91;5057401;28;763;-47
2021/01/07 07:15:22;;;;;;;;;;;;;;;20.73;42.42;100547.38;5056844;28;1999;-54
2021/01/07 07:17:48;;;;;;;;;;;;;;;20.58;42.58;100556.75;5057883;28;811;-47
2021/01/07 07:20:24;;;;;;;;;;;;;;;20.43;42.98;100561.47;5057233;28;764;-49
2021/01/07 07:22:49;;;;;;;;;;;;;;;19.80;44.11;100543.53;5056796;28;977;-48
2021/01/07 07:25:17;;;;;;;;;;;;;;;19.68;44.74;100552.22;5057039;28;854;-52
2021/01/07 07:27:49;;;;;;;;;;;;;;;20.59;42.69;100553.69;5055991;28;1298;-54
2021/01/07 07:30:16;;;;;;;;;;;;;;;20.60;42.51;100551.75;5056717;28;926;-50
2021/01/07 07:32:44;;;;;;;;;;;;;;;20.31;43.32;100547.31;5057075;28;854;-53
2021/01/07 07:35:22;;;;;;;;;;;;;;;19.95;43.49;100537.75;5056782;28;1916;-52
2021/01/07 07:37:48;;;;;;;;;;;;;;;19.82;44.58;100536.59;5055130;28;924;-50
2021/01/07 07:40:13;;;;;;;;;;;;;;;20.64;42.54;100533.44;5057172;28;724;-50
2021/01/07 07:42:41;;;;;;;;;;;;;;;20.66;42.54;100525.66;5055506;28;826;-50
2021/01/07 07:45:07;;;;;;;;;;;;;;;20.41;43.03;100530.56;5055337;28;768;-50
2021/01/07 07:47:33;;;;;;;;;;;;;;;20.04;43.63;100526.00;5057034;28;795;-50
2021/01/07 07:49:58;;;;;;;;;;;;;;;19.76;44.83;100512.91;5056577;28;747;-47
2021/01/07 07:52:24;;;;;;;;;;;;;;;20.58;42.91;100516.16;5066423;28;1440;-49
2021/01/07 07:54:59;;;;;;;;;;;;;;;21.32;40.94;100519.84;5076375;28;1914;-48
2021/01/07 07:57:24;;;;;;;;;;;;;;;21.46;40.68;100520.63;5076455;28;862;-47
2021/01/07 07:59:50;;;;;;;;;;;;;;;20.78;42.15;100517.69;5076267;28;917;-50
2021/01/07 08:02:15;;;;;;;;;;;;;;;20.65;42.30;100524.84;5076386;28;1075;-51
2021/01/07 08:04:42;;;;;;;;;;;;;;;20.03;43.15;100530.69;5076313;28;760;-46
2021/01/07 08:07:07;;;;;;;;;;;;;;;19.75;43.99;100530.56;5076270;28;997;-49
2021/01/07 08:09:33;;;;;;;;;;;;;;;20.35;43.55;100535.34;5076450;28;799;-52
2021/01/07 08:11:58;;;;;;;;;;;;;;;20.99;41.86;100531.91;5076167;28;775;-54
2021/01/07 08:14:24;;;;;;;;;;;;;;;20.64;42.80;100527.91;5074899;28;1979;-52
2021/01/07 08:16:59;;;;;;;;;;;;;;;20.43;42.92;100521.97;5076382;28;481;-49
2021/01/07 08:19:32;;;;;;;;;;;;;;;19.99;43.51;100521.38;5076185;28;755;-55
2021/01/07 08:21:57;;;;;;;;;;;;;;;19.94;44.58;100527.00;5069250;28;953;-55
2021/01/07 08:24:24;;;;;;;;;;;;;;;20.74;42.56;100540.75;5056102;28;779;-49
2021/01/07 08:27:10;;;;;;;;;;;;;;;20.75;42.37;100534.91;5056063;28;787;-48
2021/01/07 08:29:38;;;;;;;;;;;;;;;20.57;43.06;100524.75;5054756;28;824;-50
2021/01/07 08:32:04;;;;;;;;;;;;;;;20.11;43.64;100521.72;5055977;28;799;-54
2021/01/07 08:34:30;;;;;;;;;;;;;;;19.79;44.73;100517.84;5054792;28;1906;-56
2021/01/07 08:37:05;;;;;;;;;;;;;;;19.78;44.63;100518.13;5058717;28;931;-51
2021/01/07 08:39:34;;;;;;;;;;;;;;;19.72;44.73;100509.13;5060072;28;804;-49
2021/01/07 08:42:00;;;;;;;;;;;;;;;19.78;44.75;100507.09;5060462;28;804;-51
2021/01/07 08:44:25;;;;;;;;;;;;;;;20.08;43.98;100510.50;5060034;28;752;-48
2021/01/07 08:46:53;;;;;;;;;;;;;;;20.20;43.66;100518.25;5060505;28;740;-49
2021/01/07 08:49:19;;;;;;;;;;;;;;;20.31;43.45;100508.66;5060262;28;792;-47
2021/01/07 08:51:48;;;;;;;;;;;;;;;20.39;43.25;100516.25;5059541;28;935;-55
2021/01/07 08:54:16;;;;;;;;;;;;;;;20.39;43.08;100516.25;5059770;28;1910;-53
2021/01/07 08:56:43;;;;;;;;;;;;;;;20.43;43.02;100511.75;5076719;28;1198;-53
2021/01/07 08:59:17;;;;;;;;;;;;;;;20.49;42.88;100510.50;5079904;28;771;-59
2021/01/07 09:01:43;;;;;;;;;;;;;;;20.53;42.96;100507.97;5079684;28;980;-54
2021/01/07 09:04:23;;;;;;;;;;;;;;;20.52;42.96;100504.41;5079903;28;932;-55
2021/01/07 09:06:55;;;;;;;;;;;;;;;20.65;42.63;100502.75;5074195;28;937;-49
2021/01/07 09:09:21;;;;;;;;;;;;;;;20.64;42.76;100500.28;5070837;28;1420;-48
2021/01/07 09:11:46;;;;;;;;;;;;;;;20.55;42.94;100502.13;5079603;28;743;-47
2021/01/07 09:14:12;;;;;;;;;;;;;;;20.67;42.59;100492.22;5079571;28;1906;-49
2021/01/07 09:16:37;;;;;;;;;;;;;;;20.78;42.56;100486.50;5079478;28;783;-56
2021/01/07 09:19:04;;;;;;;;;;;;;;;20.78;42.56;100473.50;5078891;28;787;-54
2021/01/07 09:21:30;;;;;;;;;;;;;;;20.97;42.01;100475.28;5076287;28;985;-49
2021/01/07 09:23:56;;;;;;;;;;;;;;;21.00;41.97;100485.75;5074783;28;842;-50
2021/01/07 09:26:30;;;;;;;;;;;;;;;21.06;41.83;100481.72;5059385;28;843;-48
2021/01/07 09:28:56;;;;;;;;;;;;;;;21.06;41.83;100478.16;5059251;28;764;-46
2021/01/07 09:31:21;;;;;;;;;;;;;;;21.18;41.67;100464.56;5078101;28;820;-47
2021/01/07 09:33:47;;;;;;;;;;;;;;;21.40;41.05;100466.53;5079040;28;1972;-48
2021/01/07 09:36:12;;;;;;;;;;;;;;;21.58;40.74;100462.00;5078234;28;886;-54
2021/01/07 09:38:38;;;;;;;;;;;;;;;21.66;40.66;100466.75;5059119;28;838;-55
2021/01/07 09:41:03;;;;;;;;;;;;;;;21.78;40.26;100466.16;5059136;28;1064;-56
2021/01/07 09:43:32;;;;;;;;;;;;;;;21.50;41.06;100449.72;5058644;28;763;-55
2021/01/07 09:45:58;;;;;;;;;;;;;;;21.69;40.56;100452.28;5059301;28;720;-52
2021/01/07 09:48:23;;;;;;;;;;;;;;;21.81;40.25;100454.50;5058701;28;736;-54
2021/01/07 09:50:49;;;;;;;;;;;;;;;21.62;40.85;100446.38;5058620;28;819;-47
2021/01/07 09:53:16;;;;;;;;;;;;;;;21.62;41.01;100445.59;5058701;28;1913;-57
2021/01/07 09:55:42;;;;;;;;;;;;;;;21.17;41.77;100435.31;5067165;28;1190;-56
2021/01/07 09:58:07;;;;;;;;;;;;;;;21.05;42.23;100429.50;5078515;28;827;-54
2021/01/07 10:00:33;;;;;;;;;;;;;;;21.50;41.12;100426.75;5078655;28;1010;-55
2021/01/07 10:02:58;;;;;;;;;;;;;;;21.75;40.68;100421.72;5078622;28;830;-49
2021/01/07 10:05:23;;;;;;;;;;;;;;;21.92;40.16;100429.28;5077378;28;1164;-52
2021/01/07 10:07:49;;;;;;;;;;;;;;;21.70;40.62;100425.44;5076599;28;889;-50
2021/01/07 10:10:14;;;;;;;;;;;;;;;21.17;41.94;100414.00;5078221;28;875;-53
2021/01/07 10:12:40;;;;;;;;;;;;;;;21.28;41.56;100416.50;5078118;28;775;-55
2021/01/07 10:15:05;;;;;;;;;;;;;;;20.92;42.45;100417.38;5078755;28;1967;-55
2021/01/07 10:17:31;;;;;;;;;;;;;;;21.26;41.90;100408.53;5078334;28;736;-57
2021/01/07 10:19:56;;;;;;;;;;;;;;;21.58;41.20;100406.66;5078131;28;823;-47
2021/01/07 10:22:22;;;;;;;;;;;;;;;21.84;40.50;100403.22;5068150;28;957;-50
2021/01/07 10:24:48;;;;;;;;;;;;;;;21.67;40.78;100403.94;5058150;28;808;-54
2021/01/07 10:27:17;;;;;;;;;;;;;;;21.25;41.92;100395.03;5056788;28;784;-48
2021/01/07 10:29:43;;;;;;;;;;;;;;;21.01;42.42;100394.22;5058562;28;791;-52
2021/01/07 10:32:12;;;;;;;;;;;;;;;21.01;42.26;100393.38;5058058;28;788;-53
2021/01/07 10:34:38;;;;;;;;;;;;;;;21.43;41.35;100405.06;5058358;28;1969;-55
2021/01/07 10:37:03;;;;;;;;;;;;;;;21.72;40.76;100401.03;5057616;28;935;-56
2021/01/07 10:39:30;;;;;;;;;;;;;;;21.83;40.50;100391.31;5058067;28;799;-53
2021/01/07 10:41:56;;;;;;;;;;;;;;;21.39;41.50;100389.41;5057437;28;712;-50
2021/01/07 10:44:21;;;;;;;;;;;;;;;21.15;42.00;100391.41;5073756;28;1476;-50
2021/01/07 10:46:47;;;;;;;;;;;;;;;20.98;42.35;100388.47;5076492;28;811;-49
2021/01/07 10:49:13;;;;;;;;;;;;;;;21.41;41.48;100396.28;5075619;28;807;-48
2021/01/07 10:51:46;;;;;;;;;;;;;;;21.67;41.04;100395.63;5072966;28;875;-52
2021/01/07 10:54:15;;;;;;;;;;;;;;;21.85;40.45;100383.53;5076255;28;1905;-52
2021/01/07 10:56:41;;;;;;;;;;;;;;;21.47;41.35;100391.44;5075899;28;989;-49
2021/01/07 10:59:25;;;;;;;;;;;;;;;21.33;41.75;100397.03;5076614;28;712;-53
2021/01/07 11:01:50;;;;;;;;;;;;;;;20.91;42.60;100382.56;5077441;28;1046;-49
2021/01/07 11:04:19;;;;;;;;;;;;;;;21.24;41.96;100390.63;5077464;28;827;-51
2021/01/07 11:06:48;;;;;;;;;;;;;;;21.58;41.01;100386.47;5072154;28;930;-47
2021/01/07 11:09:14;;;;;;;;;;;;;;;21.80;40.34;100378.13;5056193;28;807;-50
2021/01/07 11:12:07;;;;;;;;;;;;;;;21.46;41.21;100378.72;5057540;28;783;-47
2021/01/07 11:14:37;;;;;;;;;;;;;;;21.29;41.56;100371.13;5055334;28;1987;-46
2021/01/07 11:17:05;;;;;;;;;;;;;;;20.82;42.68;100379.75;5057321;28;811;-55
2021/01/07 11:19:30;;;;;;;;;;;;;;;21.22;41.72;100388.16;5055531;28;911;-46
2021/01/07 11:22:02;;;;;;;;;;;;;;;21.53;41.13;100388.25;5055788;28;931;-46
2021/01/07 11:24:28;;;;;;;;;;;;;;;21.76;40.66;100390.16;5056026;28;859;-46
2021/01/07 11:26:57;;;;;;;;;;;;;;;21.95;40.21;100392.66;5056689;28;855;-49
2021/01/07 11:29:22;;;;;;;;;;;;;;;21.50;41.04;100388.03;5055809;28;851;-47
2021/01/07 11:31:48;;;;;;;;;;;;;;;21.23;41.77;100383.47;5057051;28;779;-49
2021/01/07 11:34:13;;;;;;;;;;;;;;;20.72;42.73;100380.81;5056431;28;1906;-57
2021/01/07 11:36:41;;;;;;;;;;;;;;;21.06;42.03;100382.22;5055550;28;938;-48
2021/01/07 11:39:06;;;;;;;;;;;;;;;21.51;41.10;100392.44;5056920;28;866;-47
2021/01/07 11:41:50;;;;;;;;;;;;;;;21.75;40.61;100399.59;5055470;28;927;-55
2021/01/07 11:44:22;;;;;;;;;;;;;;;21.44;41.13;100406.69;5056849;28;835;-46
2021/01/07 11:46:47;;;;;;;;;;;;;;;21.00;42.21;100398.09;5056666;28;806;-46
2021/01/07 11:49:13;;;;;;;;;;;;;;;20.96;42.27;100430.25;5055175;28;748;-49
2021/01/07 11:51:38;;;;;;;;;;;;;;;20.90;42.42;100433.44;5056410;28;942;-52
2021/01/07 11:54:04;;;;;;;;;;;;;;;21.27;41.85;100434.25;5055295;28;1914;-46
2021/01/07 11:56:30;;;;;;;;;;;;;;;21.58;40.94;100439.03;5070221;28;1250;-55
2021/01/07 11:58:58;;;;;;;;;;;;;;;21.80;40.38;100441.78;5076648;28;787;-47
2021/01/07 12:01:24;;;;;;;;;;;;;;;21.96;40.01;100446.91;5075458;28;1568;-49
2021/01/07 12:03:49;;;;;;;;;;;;;;;21.34;41.49;100440.16;5076080;28;808;-44
2021/01/07 12:06:36;;;;;;;;;;;;;;;21.13;41.90;100437.88;5075257;28;940;-49
2021/01/07 12:09:10;;;;;;;;;;;;;;;20.72;42.91;100463.69;5056402;28;818;-49
2021/01/07 12:11:41;;;;;;;;;;;;;;;21.32;41.47;100479.19;5054868;28;889;-46
2021/01/07 12:14:09;;;;;;;;;;;;;;;21.60;40.96;100486.56;5068481;28;1973;-46
2021/01/07 12:16:36;;;;;;;;;;;;;;;21.80;40.32;100475.00;5076198;28;866;-46
2021/01/07 12:19:02;;;;;;;;;;;;;;;21.91;40.16;100469.19;5075075;28;747;-53
2021/01/07 12:21:28;;;;;;;;;;;;;;;21.95;39.97;100489.56;5073284;28;950;-48
2021/01/07 12:23:53;;;;;;;;;;;;;;;20.96;42.39;100491.06;5054861;28;858;-47
2021/01/07 12:26:19;;;;;;;;;;;;;;;21.09;41.92;100505.97;5056307;28;811;-49
2021/01/07 12:28:44;;;;;;;;;;;;;;;21.05;42.15;100520.75;5056295;28;901;-52
2021/01/07 12:31:10;;;;;;;;;;;;;;;21.10;41.90;100518.69;5055144;28;859;-54
2021/01/07 12:33:38;;;;;;;;;;;;;;;21.17;41.74;100519.06;5056168;28;1963;-46
2021/01/07 12:36:04;;;;;;;;;;;;;;;21.34;41.43;100523.13;5055855;28;803;-46
2021/01/07 12:38:49;;;;;;;;;;;;;;;21.28;41.58;100529.88;5075603;28;942;-53
2021/01/07 12:41:15;;;;;;;;;;;;;;;21.27;41.31;100550.41;5076807;28;762;-47
2021/01/07 12:43:41;;;;;;;;;;;;;;;21.34;41.33;100556.31;5074810;28;708;-55
2021/01/07 12:46:07;;;;;;;;;;;;;;;21.25;41.62;100563.69;5076158;28;747;-46
2021/01/07 12:48:32;;;;;;;;;;;;;;;21.32;41.46;100564.91;5074597;28;759;-52
2021/01/07 12:50:58;;;;;;;;;;;;;;;21.37;41.25;100569.50;5074725;28;743;-61
2021/01/07 12:53:23;;;;;;;;;;;;;;;21.47;41.29;100576.75;5057214;28;1981;-51